createdAt,value
2022-08-09T00:00:58.684Z,36.90
2022-08-09T00:04:03.692Z,37.00
2022-08-09T00:06:17.389Z,37.10
2022-08-09T00:08:54.142Z,37.10
2022-08-09T00:11:27.748Z,37.40
2022-08-09T00:14:22.071Z,37.40
2022-08-09T00:17:02.953Z,37.30
2022-08-09T00:19:31.161Z,37.50
2022-08-09T00:22:03.450Z,37.60
2022-08-09T00:24:33.927Z,37.60
2022-08-09T00:27:03.025Z,38.00
2022-08-09T00:30:16.087Z,38.10
2022-08-09T00:32:35.658Z,38.30
2022-08-09T00:35:04.686Z,38.30
2022-08-09T00:37:32.884Z,38.40
2022-08-09T00:40:13.629Z,38.60
2022-08-09T00:44:13.074Z,38.90
2022-08-09T00:45:34.887Z,38.60
2022-08-09T00:48:03.347Z,38.70
2022-08-09T00:50:31.815Z,38.80
2022-08-09T00:53:00.149Z,38.90
2022-08-09T00:56:05.226Z,39.00
2022-08-09T00:58:27.696Z,39.20
2022-08-09T01:00:59.295Z,39.10
2022-08-09T01:03:40.917Z,39.20
2022-08-09T01:06:19.045Z,39.90
2022-08-09T01:08:54.020Z,39.80
2022-08-09T01:11:35.594Z,38.50
2022-08-09T01:14:06.475Z,39.80
2022-08-09T01:16:47.331Z,39.80
2022-08-09T01:19:42.527Z,40.00
2022-08-09T01:22:45.935Z,40.60
2022-08-09T01:25:37.497Z,40.40
2022-08-09T01:28:12.647Z,40.50
2022-08-09T01:30:51.991Z,40.20
2022-08-09T01:33:28.592Z,40.40
2022-08-09T01:36:03.879Z,40.60
2022-08-09T01:38:36.910Z,40.90
2022-08-09T01:41:13.140Z,40.80
2022-08-09T01:43:50.442Z,41.10
2022-08-09T01:46:25.203Z,41.20
2022-08-09T01:48:59.897Z,41.10
2022-08-09T01:51:32.285Z,41.30
2022-08-09T01:54:03.976Z,39.80
2022-08-09T01:56:34.348Z,41.00
2022-08-09T01:59:08.908Z,41.70
2022-08-09T02:02:00.030Z,41.70
2022-08-09T02:04:28.217Z,41.60
2022-08-09T02:07:15.499Z,41.70
2022-08-09T02:10:01.213Z,41.80
2022-08-09T02:12:34.079Z,42.20
2022-08-09T02:15:06.391Z,41.80
2022-08-09T02:18:00.451Z,42.70
2022-08-09T02:20:33.879Z,42.00
2022-08-09T02:23:07.898Z,42.00
2022-08-09T02:25:42.776Z,42.30
2022-08-09T02:28:24.222Z,42.40
2022-08-09T02:30:59.746Z,42.20
2022-08-09T02:33:38.178Z,42.50
2022-08-09T02:36:23.388Z,42.50
2022-08-09T02:38:58.263Z,42.50
2022-08-09T02:41:32.419Z,42.60
2022-08-09T02:44:10.287Z,42.70
2022-08-09T02:46:44.640Z,42.80
2022-08-09T02:49:15.690Z,42.90
2022-08-09T02:51:48.798Z,43.00
2022-08-09T02:54:19.159Z,43.30
2022-08-09T02:56:51.423Z,43.80
2022-08-09T02:59:36.552Z,43.50
2022-08-09T03:02:12.282Z,43.40
2022-08-09T03:04:50.726Z,43.70
2022-08-09T03:07:20.208Z,43.50
2022-08-09T03:09:56.225Z,43.70
2022-08-09T03:12:27.179Z,43.70
2022-08-09T03:14:58.072Z,43.90
2022-08-09T03:17:29.635Z,44.00
2022-08-09T03:20:05.099Z,44.30
2022-08-09T03:22:43.617Z,44.30
2022-08-09T03:25:25.836Z,44.30
2022-08-09T03:28:03.778Z,44.30
2022-08-09T03:30:36.537Z,44.30
2022-08-09T03:33:17.645Z,44.40
2022-08-09T03:36:13.172Z,44.70
2022-08-09T03:38:41.655Z,44.50
2022-08-09T03:41:15.121Z,44.40
2022-08-09T03:44:03.700Z,44.50
2022-08-09T03:46:34.069Z,44.60
2022-08-09T03:49:09.212Z,44.70
2022-08-09T03:51:56.443Z,45.00
2022-08-09T03:54:32.507Z,45.00
2022-08-09T03:57:18.627Z,45.10
2022-08-09T03:59:54.360Z,45.10
2022-08-09T04:02:26.966Z,45.10
2022-08-09T04:04:58.978Z,45.20
2022-08-09T04:07:47.532Z,45.40
2022-08-09T04:10:20.236Z,45.30
2022-08-09T04:12:51.323Z,45.30
2022-08-09T04:15:40.652Z,45.60
2022-08-09T04:18:16.581Z,45.80
2022-08-09T04:20:48.079Z,45.60
2022-08-09T04:23:17.388Z,45.90
2022-08-09T04:25:51.652Z,45.90
2022-08-09T04:28:33.429Z,46.20
2022-08-09T04:31:08.052Z,45.90
2022-08-09T04:33:53.207Z,46.10
2022-08-09T04:36:28.149Z,46.10
2022-08-09T04:38:57.966Z,46.30
2022-08-09T04:41:33.085Z,46.20
2022-08-09T04:44:05.876Z,46.30
2022-08-09T04:46:58.909Z,46.40
2022-08-09T04:49:40.718Z,46.40
2022-08-09T04:52:22.213Z,46.40
2022-08-09T04:54:55.752Z,46.60
2022-08-09T04:57:25.120Z,47.10
2022-08-09T04:59:55.524Z,46.50
2022-08-09T05:02:27.432Z,46.60
2022-08-09T05:04:56.354Z,46.60
2022-08-09T05:07:29.129Z,46.50
2022-08-09T05:10:02.033Z,46.80
2022-08-09T05:12:33.105Z,46.50
2022-08-09T05:15:11.118Z,46.60
2022-08-09T05:18:55.056Z,46.60
2022-08-09T05:20:29.906Z,46.60
2022-08-09T05:23:56.612Z,46.60
2022-08-09T05:25:50.941Z,46.80
2022-08-09T05:28:19.646Z,46.80
2022-08-09T05:30:48.678Z,46.90
2022-08-09T05:33:19.875Z,46.80
2022-08-09T05:35:54.929Z,46.80
2022-08-09T05:38:28.029Z,46.80
2022-08-09T05:40:56.347Z,47.00
2022-08-09T05:43:31.705Z,46.90
2022-08-09T05:46:00.606Z,46.90
2022-08-09T05:48:33.319Z,47.00
2022-08-09T05:51:42.860Z,47.50
2022-08-09T05:53:57.220Z,47.00
2022-08-09T05:56:28.228Z,47.20
2022-08-09T05:58:59.067Z,47.10
2022-08-09T06:01:34.185Z,47.00
2022-08-09T06:04:12.181Z,47.40
2022-08-09T06:06:45.091Z,46.10
2022-08-09T06:09:40.431Z,46.80
2022-08-09T06:12:08.090Z,47.00
2022-08-09T06:14:37.372Z,47.00
2022-08-09T06:17:09.449Z,46.90
2022-08-09T06:19:38.230Z,47.00
2022-08-09T06:22:14.906Z,46.80
2022-08-09T06:24:45.384Z,46.70
2022-08-09T06:27:15.624Z,46.70
2022-08-09T06:29:58.455Z,46.50
2022-08-09T06:33:13.561Z,46.30
2022-08-09T06:35:20.880Z,46.20
2022-08-09T06:38:05.869Z,45.90
2022-08-09T06:40:36.405Z,45.70
2022-08-09T06:43:07.652Z,45.60
2022-08-09T06:46:10.289Z,45.60
2022-08-09T06:48:30.992Z,45.50
2022-08-09T06:51:00.203Z,45.50
2022-08-09T06:53:33.386Z,45.30
2022-08-09T06:56:09.623Z,45.50
2022-08-09T07:00:46.968Z,45.40
2022-08-09T07:01:53.609Z,45.30
2022-08-09T07:04:20.205Z,44.90
2022-08-09T07:06:53.403Z,44.60
2022-08-09T07:09:54.853Z,44.50
2022-08-09T07:12:18.760Z,44.40
2022-08-09T07:14:51.502Z,44.40
2022-08-09T07:17:21.998Z,44.40
2022-08-09T07:19:55.146Z,44.40
2022-08-09T07:22:34.205Z,44.20
2022-08-09T07:25:05.302Z,43.80
2022-08-09T07:27:43.239Z,43.70
2022-08-09T07:30:24.294Z,43.60
2022-08-09T07:32:52.935Z,43.70
2022-08-09T07:35:23.556Z,43.40
2022-08-09T07:37:59.340Z,43.10
2022-08-09T07:40:33.890Z,43.00
2022-08-09T07:43:16.783Z,42.80
2022-08-09T07:45:45.255Z,42.50
2022-08-09T07:48:25.836Z,42.50
2022-08-09T07:51:09.656Z,42.30
2022-08-09T07:54:05.698Z,42.00
2022-08-09T07:56:38.865Z,41.80
2022-08-09T07:59:16.040Z,41.70
2022-08-09T08:01:55.989Z,41.50
2022-08-09T08:04:31.184Z,41.60
2022-08-09T08:07:15.347Z,41.50
2022-08-09T08:09:53.348Z,41.20
2022-08-09T08:12:29.390Z,40.70
2022-08-09T08:15:00.835Z,40.60
2022-08-09T08:17:52.358Z,40.50
2022-08-09T08:20:19.526Z,40.40
2022-08-09T08:23:01.316Z,40.20
2022-08-09T08:25:40.341Z,39.50
2022-08-09T08:28:14.292Z,39.00
2022-08-09T08:30:44.653Z,38.50
2022-08-09T08:33:23.031Z,38.20
2022-08-09T08:35:59.012Z,38.20
2022-08-09T08:38:28.435Z,37.90
2022-08-09T08:40:58.281Z,37.50
2022-08-09T08:43:27.716Z,36.80
2022-08-09T08:46:10.143Z,36.30
2022-08-09T08:48:53.955Z,36.30
2022-08-09T08:51:23.406Z,36.80
2022-08-09T08:54:03.616Z,36.30
2022-08-09T08:56:36.158Z,36.20
2022-08-09T08:59:18.955Z,35.80
2022-08-09T09:01:57.427Z,35.30
2022-08-09T09:04:31.959Z,34.90
2022-08-09T09:07:12.148Z,34.40
2022-08-09T09:09:59.653Z,33.90
2022-08-09T09:12:35.443Z,33.60
2022-08-09T09:15:06.606Z,34.10
2022-08-09T09:17:48.482Z,33.10
2022-08-09T09:20:21.552Z,32.90
2022-08-09T09:22:56.607Z,33.00
2022-08-09T09:26:03.620Z,32.10
2022-08-09T09:29:01.873Z,31.90
2022-08-09T09:32:05.797Z,33.40
2022-08-09T09:34:15.335Z,32.10
2022-08-09T09:36:51.179Z,31.00
2022-08-09T09:39:23.337Z,31.30
2022-08-09T09:41:52.211Z,31.10
2022-08-09T09:44:31.800Z,30.60
2022-08-09T09:47:07.576Z,30.60
2022-08-09T09:50:14.354Z,30.00
2022-08-09T09:52:52.373Z,29.90
2022-08-09T09:55:27.903Z,29.90
2022-08-09T09:58:16.588Z,29.80
2022-08-09T10:00:54.398Z,29.60
2022-08-09T10:03:44.500Z,29.00
2022-08-09T10:06:14.806Z,28.50
2022-08-09T10:08:54.915Z,28.50
2022-08-09T10:12:00.163Z,28.30
2022-08-09T10:14:27.279Z,28.10
2022-08-09T10:17:17.650Z,27.70
2022-08-09T10:19:53.088Z,28.10
2022-08-09T10:22:33.516Z,27.50
2022-08-09T10:25:11.367Z,26.90
2022-08-09T10:27:55.868Z,26.80
2022-08-09T10:33:29.484Z,27.20
2022-08-09T10:36:04.744Z,26.90
2022-08-09T10:38:56.122Z,26.60
2022-08-09T10:41:22.649Z,26.20
2022-08-09T10:43:58.737Z,26.20
2022-08-09T10:47:00.884Z,26.20
2022-08-09T10:49:49.909Z,25.90
2022-08-09T10:52:36.398Z,25.80
2022-08-09T10:55:20.555Z,25.00
2022-08-09T10:57:51.910Z,26.10
2022-08-09T11:01:11.014Z,25.70
2022-08-09T11:03:49.932Z,26.20
2022-08-09T11:06:25.592Z,25.20
2022-08-09T11:08:54.898Z,24.70
2022-08-09T11:11:25.449Z,24.90
2022-08-09T11:14:28.612Z,24.90
2022-08-09T11:16:57.705Z,24.70
2022-08-09T11:20:11.505Z,24.80
2022-08-09T11:23:10.199Z,25.00
2022-08-09T11:25:49.411Z,24.90
2022-08-09T11:28:35.185Z,24.10
2022-08-09T11:31:43.434Z,24.00
2022-08-09T11:34:37.237Z,23.20
2022-08-09T11:37:07.327Z,23.60
2022-08-09T11:40:02.771Z,23.60
2022-08-09T11:42:47.081Z,23.80
2022-08-09T11:45:22.996Z,23.10
2022-08-09T11:48:01.266Z,22.80
2022-08-09T11:51:38.125Z,22.90
2022-08-09T11:54:14.563Z,23.30
2022-08-09T11:57:16.597Z,23.10
2022-08-09T11:59:56.593Z,22.80
2022-08-09T12:02:37.257Z,22.90
2022-08-09T12:05:11.091Z,22.90
2022-08-09T12:07:46.400Z,22.70
2022-08-09T12:10:39.677Z,22.90
2022-08-09T12:13:03.810Z,23.10
2022-08-09T12:15:52.782Z,22.80
2022-08-09T12:18:30.301Z,22.50
2022-08-09T12:21:03.682Z,22.10
2022-08-09T12:24:06.335Z,22.20
2022-08-09T12:26:44.858Z,22.20
2022-08-09T12:29:43.570Z,22.10
2022-08-09T12:32:26.024Z,22.40
2022-08-09T12:35:02.781Z,22.50
2022-08-09T12:37:37.876Z,22.50
2022-08-09T12:40:20.427Z,21.90
2022-08-09T12:42:50.135Z,22.00
2022-08-09T12:45:34.238Z,21.60
2022-08-09T12:48:19.841Z,21.40
2022-08-09T12:50:51.481Z,21.40
2022-08-09T12:53:37.878Z,21.10
2022-08-09T12:56:44.052Z,20.90
2022-08-09T12:59:14.040Z,20.90
2022-08-09T13:01:48.823Z,21.60
2022-08-09T13:04:37.218Z,22.00
2022-08-09T13:07:16.542Z,21.40
2022-08-09T13:09:55.433Z,21.70
2022-08-09T13:12:29.564Z,21.40
2022-08-09T13:15:08.702Z,21.70
2022-08-09T13:18:02.435Z,21.40
2022-08-09T13:22:33.338Z,21.60
2022-08-09T13:24:15.815Z,21.60
2022-08-09T13:26:37.013Z,21.80
2022-08-09T13:29:07.622Z,22.50
2022-08-09T13:32:15.524Z,21.70
2022-08-09T13:34:24.399Z,21.90
2022-08-09T13:36:59.048Z,21.70
2022-08-09T13:41:21.239Z,21.40
2022-08-09T13:42:18.939Z,21.00
2022-08-09T13:44:48.624Z,20.90
2022-08-09T13:47:43.991Z,20.80
2022-08-09T13:50:17.895Z,21.00
2022-08-09T13:52:47.900Z,21.30
2022-08-09T13:55:21.127Z,21.10
2022-08-09T13:57:55.966Z,21.20
2022-08-09T14:00:28.328Z,21.20
2022-08-09T14:03:04.237Z,21.40
2022-08-09T14:06:01.302Z,21.60
2022-08-09T14:08:31.843Z,21.90
2022-08-09T14:11:01.630Z,21.80
2022-08-09T14:14:22.623Z,21.50
2022-08-09T14:16:28.012Z,22.00
2022-08-09T14:18:57.144Z,21.80
2022-08-09T14:21:29.666Z,21.70
2022-08-09T14:24:10.172Z,21.60
2022-08-09T14:26:51.144Z,21.90
2022-08-09T14:29:46.394Z,21.60
2022-08-09T14:32:13.307Z,21.50
2022-08-09T14:34:55.658Z,21.20
2022-08-09T14:37:28.541Z,20.80
2022-08-09T14:40:10.613Z,20.80
2022-08-09T14:42:42.807Z,20.90
2022-08-09T14:46:39.618Z,20.80
2022-08-09T14:48:02.352Z,20.90
2022-08-09T14:50:32.472Z,21.30
2022-08-09T14:53:01.737Z,21.30
2022-08-09T14:55:32.522Z,21.30
2022-08-09T14:58:05.222Z,21.50
2022-08-09T15:00:36.416Z,21.60
2022-08-09T15:03:07.050Z,21.60
2022-08-09T15:05:36.685Z,21.40
2022-08-09T15:08:11.419Z,22.50
2022-08-09T15:10:44.825Z,22.20
2022-08-09T15:13:55.932Z,21.80
2022-08-09T15:16:23.027Z,22.00
2022-08-09T15:18:59.495Z,21.60
2022-08-09T15:22:00.840Z,21.70
2022-08-09T15:24:22.589Z,21.60
2022-08-09T15:26:54.780Z,22.00
2022-08-09T15:30:48.517Z,21.80
2022-08-09T15:32:29.838Z,21.50
2022-08-09T15:35:00.978Z,21.70
2022-08-09T15:37:57.211Z,21.70
2022-08-09T15:40:32.072Z,21.90
2022-08-09T15:43:02.468Z,22.10
2022-08-09T15:45:51.681Z,22.30
2022-08-09T15:48:29.284Z,22.50
2022-08-09T15:50:59.308Z,22.50
2022-08-09T15:54:04.410Z,22.70
2022-08-09T15:56:28.643Z,22.90
2022-08-09T15:59:00.179Z,22.80
2022-08-09T16:01:35.568Z,22.80
2022-08-09T16:04:04.378Z,22.80
2022-08-09T16:06:37.352Z,22.90
2022-08-09T16:09:06.592Z,22.80
2022-08-09T16:11:34.870Z,23.00
2022-08-09T16:14:07.674Z,23.00
2022-08-09T16:16:41.800Z,23.20
2022-08-09T16:19:14.336Z,23.10
2022-08-09T16:21:51.771Z,23.00
2022-08-09T16:24:33.639Z,23.20
2022-08-09T16:27:04.912Z,23.30
2022-08-09T16:29:36.640Z,23.30
2022-08-09T16:32:19.713Z,23.30
2022-08-09T16:34:58.776Z,23.30
2022-08-09T16:37:53.921Z,23.20
2022-08-09T16:40:29.644Z,23.20
2022-08-09T16:43:07.999Z,23.10
2022-08-09T16:45:44.188Z,23.20
2022-08-09T16:48:42.404Z,23.50
2022-08-09T16:51:08.163Z,23.50
2022-08-09T16:54:09.033Z,23.50
2022-08-09T16:56:32.029Z,23.60
2022-08-09T16:59:06.490Z,23.60
2022-08-09T17:01:43.852Z,23.60
2022-08-09T17:04:26.114Z,23.70
2022-08-09T17:08:41.606Z,23.80
2022-08-09T17:09:48.482Z,23.80
2022-08-09T17:12:19.588Z,23.80
2022-08-09T17:14:57.223Z,23.90
2022-08-09T17:17:27.796Z,24.10
2022-08-09T17:20:29.933Z,24.20
2022-08-09T17:22:52.308Z,24.10
2022-08-09T17:25:22.269Z,24.40
2022-08-09T17:27:54.479Z,24.40
2022-08-09T17:30:28.433Z,24.40
2022-08-09T17:33:04.817Z,24.60
2022-08-09T17:35:40.997Z,24.80
2022-08-09T17:38:29.137Z,25.10
2022-08-09T17:41:00.012Z,25.00
2022-08-09T17:43:33.976Z,25.10
2022-08-09T17:46:06.091Z,25.20
2022-08-09T17:48:38.456Z,25.40
2022-08-09T17:51:18.424Z,25.50
2022-08-09T17:53:51.756Z,25.50
2022-08-09T17:56:27.556Z,25.50
2022-08-09T17:59:03.421Z,25.60
2022-08-09T18:02:13.962Z,25.60
2022-08-09T18:04:28.855Z,25.70
2022-08-09T18:06:58.848Z,26.30
2022-08-09T18:09:40.971Z,25.90
2022-08-09T18:12:17.115Z,25.90
2022-08-09T18:14:49.810Z,26.10
2022-08-09T18:17:27.455Z,26.20
2022-08-09T18:21:01.871Z,26.40
2022-08-09T18:23:05.185Z,26.60
2022-08-09T18:25:50.809Z,26.80
2022-08-09T18:30:34.773Z,26.80
2022-08-09T18:31:10.545Z,26.90
2022-08-09T18:33:40.291Z,27.00
2022-08-09T18:36:14.177Z,27.60
2022-08-09T18:39:00.914Z,27.20
2022-08-09T18:41:34.365Z,27.40
2022-08-09T18:44:04.244Z,27.40
2022-08-09T18:46:49.542Z,26.80
2022-08-09T18:49:32.216Z,27.40
2022-08-09T18:52:10.060Z,27.60
2022-08-09T18:54:52.527Z,27.80
2022-08-09T18:57:22.909Z,28.00
2022-08-09T18:59:57.628Z,28.00
2022-08-09T19:02:31.814Z,28.20
2022-08-09T19:05:19.585Z,28.30
2022-08-09T19:08:04.459Z,28.40
2022-08-09T19:10:40.559Z,28.50
2022-08-09T19:13:38.658Z,28.70
2022-08-09T19:16:21.136Z,28.70
2022-08-09T19:18:50.883Z,28.80
2022-08-09T19:21:21.713Z,29.50
2022-08-09T19:24:37.670Z,29.00
2022-08-09T19:27:02.241Z,29.20
2022-08-09T19:29:38.247Z,29.30
2022-08-09T19:32:21.116Z,29.40
2022-08-09T19:34:57.471Z,29.40
2022-08-09T19:37:25.912Z,29.60
2022-08-09T19:40:04.305Z,29.70
2022-08-09T19:42:35.255Z,29.70
2022-08-09T19:45:03.900Z,29.90
2022-08-09T19:47:33.307Z,29.90
2022-08-09T19:50:50.732Z,30.00
2022-08-09T19:52:55.622Z,29.40
2022-08-09T19:55:30.667Z,29.90
2022-08-09T19:58:16.615Z,30.10
2022-08-09T20:00:46.761Z,30.20
2022-08-09T20:04:09.529Z,30.30
2022-08-09T20:06:20.938Z,30.50
2022-08-09T20:08:51.506Z,30.50
2022-08-09T20:11:21.661Z,30.60
2022-08-09T20:13:59.455Z,30.70
2022-08-09T20:16:35.697Z,31.10
2022-08-09T20:19:47.627Z,30.90
2022-08-09T20:22:00.395Z,31.20
2022-08-09T20:24:33.774Z,31.20
2022-08-09T20:27:05.496Z,31.40
2022-08-09T20:29:42.296Z,31.50
2022-08-09T20:32:29.688Z,31.90
2022-08-09T20:35:02.771Z,31.80
2022-08-09T20:37:37.299Z,31.80
2022-08-09T20:40:26.451Z,32.00
2022-08-09T20:42:59.824Z,32.00
2022-08-09T20:46:00.316Z,32.30
2022-08-09T20:48:31.847Z,32.40
2022-08-09T20:51:03.117Z,32.40
2022-08-09T20:53:36.868Z,32.70
2022-08-09T20:56:20.544Z,32.90
2022-08-09T20:58:50.140Z,33.10
2022-08-09T21:01:35.309Z,33.10
2022-08-09T21:05:51.204Z,33.70
2022-08-09T21:07:11.712Z,33.40
2022-08-09T21:09:45.180Z,33.60
2022-08-09T21:14:46.253Z,33.80
2022-08-09T21:18:25.553Z,33.90
2022-08-09T21:20:25.246Z,34.40
2022-08-09T21:22:55.083Z,34.40
2022-08-09T21:25:38.343Z,34.40
2022-08-09T21:28:07.392Z,34.60
2022-08-09T21:30:37.035Z,34.60
2022-08-09T21:33:10.803Z,34.90
2022-08-09T21:35:51.023Z,35.00
2022-08-09T21:38:31.227Z,35.00
2022-08-09T21:41:00.343Z,35.20
2022-08-09T21:43:57.149Z,35.20
2022-08-09T21:46:17.343Z,35.40
2022-08-09T21:48:49.532Z,35.50
2022-08-09T21:51:35.678Z,35.70
2022-08-09T21:54:04.890Z,35.90
2022-08-09T21:56:42.905Z,35.80
2022-08-09T21:59:14.170Z,36.00
2022-08-09T22:01:58.922Z,36.60
2022-08-09T22:04:56.680Z,36.20
2022-08-09T22:07:23.271Z,36.30
2022-08-09T22:10:04.509Z,36.10
2022-08-09T22:12:32.956Z,36.20
2022-08-09T22:15:01.656Z,36.20
2022-08-09T22:17:32.037Z,36.40
2022-08-09T22:20:02.295Z,36.50
2022-08-09T22:22:32.105Z,36.80
2022-08-09T22:26:07.089Z,36.60
2022-08-09T22:27:50.666Z,36.70
2022-08-09T22:30:26.080Z,36.60
2022-08-09T22:33:01.562Z,36.80
2022-08-09T22:36:01.923Z,36.80
2022-08-09T22:38:19.635Z,37.10
2022-08-09T22:40:49.126Z,37.10
2022-08-09T22:44:00.740Z,37.20
2022-08-09T22:48:13.477Z,37.30
2022-08-09T22:49:10.327Z,37.30
2022-08-09T22:51:49.462Z,37.40
2022-08-09T22:54:27.189Z,37.60
2022-08-09T22:56:56.862Z,37.40
2022-08-09T22:59:55.796Z,37.50
2022-08-09T23:02:15.809Z,37.60
2022-08-09T23:04:53.845Z,37.50
2022-08-09T23:08:27.606Z,36.50
2022-08-09T23:10:31.482Z,37.30
2022-08-09T23:12:59.968Z,37.30
2022-08-09T23:15:28.755Z,37.40
2022-08-09T23:17:57.622Z,37.60
2022-08-09T23:20:26.228Z,37.70
2022-08-09T23:22:55.908Z,37.80
2022-08-09T23:25:24.109Z,38.00
2022-08-09T23:28:00.595Z,37.90
2022-08-09T23:30:40.408Z,38.00
2022-08-09T23:33:19.172Z,38.00
2022-08-09T23:36:05.873Z,38.00
2022-08-09T23:38:48.292Z,37.90
2022-08-09T23:41:29.103Z,38.10
2022-08-09T23:43:58.627Z,38.10
2022-08-09T23:46:26.870Z,38.30
2022-08-09T23:48:55.096Z,38.40
2022-08-09T23:51:23.409Z,38.50
2022-08-09T23:53:55.342Z,38.60
2022-08-09T23:56:39.659Z,39.00
2022-08-09T23:59:20.866Z,38.80
